»·PEaware :: N456MJ KLOL-KRDD

N456MJ :: KLOL-KRDD

FLIGHT INFORMATION

Flight Status: Arrived
Operator: Privately registered:
United States
More flights under this callsign
Pilot: Jone M. (10385)
Aircraft: CESSNA 172 SKYHAWK
(C172)
More flights by this aircraft type
Origin: KLOL Derby
United States
Destination: KRDD Redding Mun
United States
More flights between these airports :: More routes between these airports
Route: O05 EWOKS
File this flight plan on PilotEdge
Remarks:
Altitude:
(Current/Filed)
8,500ft
Speed:
(Current/Filed)
140kts
Departed: 01-Mar-19 12:45 AM
Arrived: 01-Mar-19 02:44 AM
Distance/Time
Traveled:
173nm/1:59
Distance/Time
To Go:
Arrived

Flight Plot

Page will automatically refresh every two minutes.

Flight plan parsing failed; only flown route is shown


Map Options




Map Legend


Flown Route
Filed Route
Departure Airport
Arrival Airport
Navaid (VOR, NDB)
Fix

Horizontal Profiles

Position Reports

Time Latitude Longitude Heading Altitude Ground
Speed
01-Mar-19 00:31 40.070341 -118.568670 118 3904ft 0kts
01-Mar-19 00:32 40.070341 -118.568670 118 3904ft 0kts
01-Mar-19 00:34 40.070341 -118.568670 118 3904ft 0kts
01-Mar-19 00:34 40.070341 -118.568670 118 3904ft 0kts
01-Mar-19 00:35 40.070341 -118.568670 118 3904ft 0kts
01-Mar-19 00:36 40.070341 -118.568669 118 3904ft 0kts
01-Mar-19 00:37 40.069064 -118.568522 163 3904ft 7kts
01-Mar-19 00:38 40.068301 -118.568280 163 3904ft 0kts
01-Mar-19 00:39 40.068230 -118.568224 136 3904ft 0kts
01-Mar-19 00:40 40.068230 -118.568224 136 3904ft 0kts
01-Mar-19 00:41 40.065585 -118.570054 208 3901ft 15kts
01-Mar-19 00:42 40.062626 -118.572384 212 3901ft 13kts
01-Mar-19 00:43 40.062462 -118.572444 35 3901ft 0kts
01-Mar-19 00:44 40.065091 -118.570392 27 3903ft 63kts
01-Mar-19 00:45 40.082960 -118.559593 314 4528ft 76kts
01-Mar-19 00:46 40.080433 -118.588860 272 5267ft 76kts
01-Mar-19 00:47 40.078172 -118.617305 270 5904ft 80kts
01-Mar-19 00:48 40.076762 -118.645295 278 6515ft 73kts
01-Mar-19 00:49 40.077409 -118.670704 281 7124ft 66kts
01-Mar-19 00:50 40.078787 -118.694253 282 7657ft 64kts
01-Mar-19 00:51 40.080486 -118.717060 282 8173ft 60kts
01-Mar-19 00:52 40.080063 -118.738847 266 8597ft 70kts
01-Mar-19 00:53 40.074583 -118.770115 264 8507ft 96kts
01-Mar-19 00:54 40.068423 -118.804980 264 8505ft 99kts
01-Mar-19 00:55 40.062207 -118.840285 264 8504ft 99kts
01-Mar-19 00:56 40.056001 -118.875533 263 8504ft 99kts
01-Mar-19 00:57 40.049816 -118.910617 263 8504ft 98kts
01-Mar-19 00:58 40.043702 -118.945239 263 8504ft 97kts
01-Mar-19 00:59 40.037602 -118.979720 263 8504ft 96kts
01-Mar-19 01:00 40.031546 -119.013888 263 8503ft 95kts
01-Mar-19 01:01 40.025537 -119.047736 262 8503ft 94kts
01-Mar-19 01:02 40.019603 -119.081142 262 8499ft 94kts
01-Mar-19 01:03 40.013679 -119.114400 261 8495ft 93kts
01-Mar-19 01:04 40.007912 -119.146688 260 8490ft 88kts
01-Mar-19 01:05 40.002395 -119.177531 259 8486ft 86kts
01-Mar-19 01:06 39.996977 -119.207745 258 8482ft 85kts
01-Mar-19 01:07 39.991570 -119.237814 257 8478ft 84kts
01-Mar-19 01:08 39.986207 -119.267596 256 8474ft 84kts
01-Mar-19 01:09 39.980846 -119.297269 256 8472ft 83kts
01-Mar-19 01:10 39.975497 -119.326845 256 8472ft 83kts
01-Mar-19 01:11 39.970185 -119.356204 256 8472ft 83kts
01-Mar-19 01:12 39.964838 -119.385733 256 8473ft 85kts
01-Mar-19 01:13 39.960588 -119.416561 278 8478ft 92kts
01-Mar-19 01:14 39.967537 -119.448678 276 8480ft 92kts
01-Mar-19 01:15 39.974834 -119.480890 277 8480ft 93kts
01-Mar-19 01:16 39.982330 -119.513379 276 8479ft 93kts
01-Mar-19 01:17 39.989888 -119.545954 277 8479ft 93kts
01-Mar-19 01:18 39.997444 -119.578456 277 8479ft 93kts
01-Mar-19 01:19 40.004976 -119.610877 277 8479ft 93kts
01-Mar-19 01:20 40.012569 -119.643586 277 8479ft 93kts
01-Mar-19 01:21 40.020170 -119.676395 276 8485ft 94kts
01-Mar-19 01:22 40.027822 -119.709437 276 8484ft 95kts
01-Mar-19 01:23 40.035479 -119.742531 276 8484ft 95kts
01-Mar-19 01:24 40.042886 -119.774612 276 8486ft 91kts
01-Mar-19 01:25 40.050319 -119.806884 276 8484ft 94kts
01-Mar-19 01:26 40.057812 -119.839414 276 8484ft 94kts
01-Mar-19 01:27 40.065343 -119.872165 276 8483ft 94kts
01-Mar-19 01:28 40.072826 -119.904749 276 8483ft 94kts
01-Mar-19 01:29 40.080328 -119.937477 276 8483ft 94kts
01-Mar-19 01:30 40.087819 -119.970189 276 8483ft 94kts
01-Mar-19 01:31 40.095275 -120.002818 276 8483ft 94kts
01-Mar-19 01:32 40.102727 -120.035475 276 8485ft 94kts
01-Mar-19 01:33 40.110146 -120.068034 277 8487ft 94kts
01-Mar-19 01:34 40.117544 -120.100531 277 8490ft 94kts
01-Mar-19 01:35 40.124922 -120.133008 277 8494ft 94kts
01-Mar-19 01:36 40.132319 -120.165615 277 8497ft 93kts
01-Mar-19 01:37 40.138111 -120.198362 273 8501ft 92kts
01-Mar-19 01:38 40.142741 -120.231540 273 8505ft 92kts
01-Mar-19 01:39 40.147326 -120.264665 273 8507ft 92kts
01-Mar-19 01:40 40.151852 -120.297525 273 8508ft 92kts
01-Mar-19 01:41 40.156381 -120.330539 273 8508ft 92kts
01-Mar-19 01:42 40.160866 -120.363282 273 8509ft 92kts
01-Mar-19 01:43 40.165365 -120.396213 273 8509ft 92kts
01-Mar-19 01:44 40.169833 -120.429021 273 8508ft 91kts
01-Mar-19 01:45 40.174317 -120.461996 273 8508ft 91kts
01-Mar-19 01:46 40.178755 -120.494711 273 8508ft 91kts
01-Mar-19 01:47 40.183200 -120.527543 273 8508ft 91kts
01-Mar-19 01:48 40.187641 -120.560439 273 8508ft 91kts
01-Mar-19 01:49 40.192068 -120.593298 273 8507ft 91kts
01-Mar-19 01:50 40.197251 -120.626141 275 8507ft 92kts
01-Mar-19 01:51 40.202624 -120.658865 273 8512ft 92kts
01-Mar-19 01:52 40.207253 -120.691920 273 8513ft 93kts
01-Mar-19 01:53 40.211738 -120.725073 273 8513ft 93kts
01-Mar-19 01:54 40.216192 -120.758270 273 8512ft 93kts
01-Mar-19 01:55 40.220674 -120.791721 273 8512ft 93kts
01-Mar-19 01:56 40.225138 -120.825152 273 8512ft 93kts
01-Mar-19 01:57 40.229600 -120.858641 273 8512ft 93kts
01-Mar-19 01:58 40.234055 -120.892137 273 8511ft 92kts
01-Mar-19 01:59 40.238469 -120.925437 273 8511ft 93kts
01-Mar-19 02:00 40.242848 -120.958526 273 8511ft 93kts
01-Mar-19 02:01 40.247193 -120.991463 273 8511ft 93kts
01-Mar-19 02:02 40.251609 -121.024963 273 8511ft 94kts
01-Mar-19 02:03 40.256069 -121.058922 274 8511ft 95kts
01-Mar-19 02:04 40.260604 -121.093495 274 8511ft 96kts
01-Mar-19 02:05 40.265092 -121.127790 275 8511ft 97kts
01-Mar-19 02:06 40.269656 -121.162753 275 8511ft 98kts
01-Mar-19 02:07 40.274274 -121.198204 276 8510ft 99kts
01-Mar-19 02:08 40.278972 -121.234393 276 8519ft 100kts
01-Mar-19 02:09 40.284483 -121.269871 279 8530ft 100kts
01-Mar-19 02:10 40.290210 -121.305443 279 8541ft 100kts
01-Mar-19 02:11 40.295894 -121.340764 280 8552ft 101kts
01-Mar-19 02:12 40.301650 -121.376600 280 8562ft 101kts
01-Mar-19 02:13 40.307406 -121.412516 281 8573ft 101kts
01-Mar-19 02:14 40.313176 -121.448575 281 8583ft 101kts
01-Mar-19 02:15 40.319010 -121.485110 281 8583ft 101kts
01-Mar-19 02:16 40.324788 -121.521387 281 8583ft 101kts
01-Mar-19 02:17 40.330421 -121.556834 281 8583ft 101kts
01-Mar-19 02:18 40.336191 -121.593220 281 8582ft 101kts
01-Mar-19 02:19 40.341965 -121.629723 281 8582ft 101kts
01-Mar-19 02:20 40.347730 -121.666255 281 8584ft 101kts
01-Mar-19 02:21 40.353532 -121.703020 281 8584ft 102kts
01-Mar-19 02:22 40.361888 -121.738937 286 8584ft 102kts
01-Mar-19 02:24 40.371180 -121.774552 286 8583ft 102kts
01-Mar-19 02:25 40.380414 -121.809897 286 8582ft 102kts
01-Mar-19 02:26 40.389669 -121.845366 286 8581ft 102kts
01-Mar-19 02:27 40.398898 -121.880780 286 8581ft 102kts
01-Mar-19 02:28 40.408093 -121.916119 286 8580ft 101kts
01-Mar-19 02:29 40.417170 -121.951059 286 8580ft 101kts
01-Mar-19 02:30 40.426191 -121.985823 286 8579ft 101kts
01-Mar-19 02:31 40.435346 -122.021153 287 8578ft 101kts
01-Mar-19 02:32 40.444503 -122.056541 287 8578ft 101kts
01-Mar-19 02:33 40.453850 -122.092773 288 8259ft 106kts
01-Mar-19 02:34 40.462567 -122.126543 292 6350ft 100kts
01-Mar-19 02:35 40.471619 -122.161509 293 4352ft 106kts
01-Mar-19 02:36 40.480811 -122.197175 292 2753ft 94kts
01-Mar-19 02:37 40.483139 -122.230312 273 1871ft 90kts
01-Mar-19 02:38 40.484841 -122.260445 286 1183ft 84kts
01-Mar-19 02:39 40.501705 -122.286023 322 1032ft 95kts
01-Mar-19 02:40 40.500681 -122.305782 163 1075ft 67kts
01-Mar-19 02:41 40.506038 -122.296000 306 553ft 44kts
01-Mar-19 02:42 40.507628 -122.309584 191 1202ft 69kts
01-Mar-19 02:42 40.497884 -122.301214 83 1006ft 60kts
01-Mar-19 02:44 40.507713 -122.294930 351 494ft 11kts
01-Mar-19 02:45 40.522552 -122.298362 281 1198ft 77kts
01-Mar-19 02:45 40.504841 -122.304254 179 1435ft 69kts
01-Mar-19 02:46 40.500927 -122.294909 6 602ft 54kts
01-Mar-19 02:48 40.508552 -122.296695 275 495ft 9kts
01-Mar-19 02:48 40.508255 -122.298321 42 495ft 9kts
01-Mar-19 02:50 40.508646 -122.297844 0 495ft 0kts
01-Mar-19 02:50 40.508646 -122.297844 0 495ft 0kts
01-Mar-19 02:51 40.508646 -122.297844 0 495ft 0kts

Navigation Log

Ident Type
Flight plan parsing failed, navigation log unavailable